createdAt,value
2022-09-15T00:01:43.551Z,0.30
2022-09-15T00:04:12.738Z,0.30
2022-09-15T00:06:41.770Z,0.30
2022-09-15T00:09:10.547Z,0.30
2022-09-15T00:11:40.770Z,0.30
2022-09-15T00:14:09.983Z,0.30
2022-09-15T00:16:39.121Z,0.30
2022-09-15T00:19:07.980Z,0.30
2022-09-15T00:21:39.722Z,0.30
2022-09-15T00:24:10.162Z,0.30
2022-09-15T00:26:39.387Z,0.30
2022-09-15T00:29:09.187Z,0.30
2022-09-15T00:31:37.992Z,0.30
2022-09-15T00:34:07.701Z,0.30
2022-09-15T00:36:36.512Z,0.30
2022-09-15T00:39:05.992Z,0.30
2022-09-15T00:41:35.894Z,0.30
2022-09-15T00:44:36.677Z,0.30
2022-09-15T00:47:19.243Z,0.30
2022-09-15T00:49:58.818Z,0.30
2022-09-15T00:52:53.879Z,0.40
2022-09-15T00:55:30.956Z,0.30
2022-09-15T00:58:07.362Z,0.30
2022-09-15T01:00:37.491Z,0.30
2022-09-15T01:03:07.228Z,0.30
2022-09-15T01:05:45.673Z,0.30
2022-09-15T01:08:26.802Z,0.30
2022-09-15T01:10:55.812Z,0.30
2022-09-15T01:13:24.777Z,0.30
2022-09-15T01:16:12.142Z,0.30
2022-09-15T01:19:00.200Z,0.30
2022-09-15T01:21:32.003Z,0.30
2022-09-15T01:24:18.680Z,0.30
2022-09-15T01:30:03.656Z,0.30
2022-09-15T01:33:09.461Z,0.30
2022-09-15T01:35:59.579Z,0.30
2022-09-15T01:38:47.685Z,0.30
2022-09-15T01:41:27.213Z,0.30
2022-09-15T01:44:28.048Z,0.30
2022-09-15T01:47:04.021Z,0.30
2022-09-15T01:49:42.888Z,0.40
2022-09-15T01:52:12.272Z,0.30
2022-09-15T01:54:49.809Z,0.30
2022-09-15T01:57:23.063Z,0.30
2022-09-15T01:59:54.715Z,0.30
2022-09-15T02:02:39.210Z,0.30
2022-09-15T02:05:33.216Z,0.30
2022-09-15T02:08:09.324Z,0.30
2022-09-15T02:10:47.073Z,0.20
2022-09-15T02:14:01.966Z,0.30
2022-09-15T02:16:37.029Z,0.30
2022-09-15T02:19:32.842Z,0.30
2022-09-15T02:22:39.227Z,0.32
2022-09-15T02:25:29.614Z,0.30
2022-09-15T02:28:05.128Z,0.30
2022-09-15T02:30:36.786Z,0.30
2022-09-15T02:33:09.075Z,0.30
2022-09-15T02:35:37.952Z,0.30
2022-09-15T02:38:09.740Z,0.20
2022-09-15T02:40:42.055Z,0.28
2022-09-15T02:43:14.188Z,0.20
2022-09-15T02:45:46.542Z,0.20
2022-09-15T02:48:18.207Z,0.30
2022-09-15T02:50:47.043Z,0.20
2022-09-15T02:53:15.755Z,0.20
2022-09-15T02:55:44.930Z,0.20
2022-09-15T02:58:13.634Z,0.30
2022-09-15T03:00:45.421Z,0.20
2022-09-15T03:03:14.330Z,0.20
2022-09-15T03:05:43.595Z,0.30
2022-09-15T03:08:14.510Z,0.28
2022-09-15T03:10:44.813Z,0.20
2022-09-15T03:13:13.548Z,0.20
2022-09-15T03:15:42.491Z,0.30
2022-09-15T03:18:11.228Z,0.20
2022-09-15T03:20:40.887Z,0.22
2022-09-15T03:23:09.962Z,0.30
2022-09-15T03:25:38.637Z,0.20
2022-09-15T03:28:07.398Z,0.20
2022-09-15T03:30:36.191Z,0.30
2022-09-15T03:33:04.978Z,0.40
2022-09-15T03:35:33.951Z,0.20
2022-09-15T03:38:02.887Z,0.20
2022-09-15T03:40:31.924Z,0.20
2022-09-15T03:43:01.447Z,0.20
2022-09-15T03:45:30.273Z,0.30
2022-09-15T03:47:59.080Z,0.20
2022-09-15T03:50:29.665Z,0.30
2022-09-15T03:53:01.063Z,0.28
2022-09-15T03:55:29.916Z,0.30
2022-09-15T03:57:58.627Z,0.30
2022-09-15T04:00:27.882Z,0.30
2022-09-15T04:02:56.880Z,0.30
2022-09-15T04:05:25.600Z,0.30
2022-09-15T04:07:54.441Z,0.30
2022-09-15T04:10:25.142Z,0.28
2022-09-15T04:12:54.734Z,0.40
2022-09-15T04:15:24.189Z,0.30
2022-09-15T04:17:52.849Z,0.30
2022-09-15T04:20:22.016Z,0.20
2022-09-15T04:22:50.983Z,0.20
2022-09-15T04:25:19.815Z,0.20
2022-09-15T04:27:48.560Z,0.10
2022-09-15T04:30:17.850Z,0.20
2022-09-15T04:32:46.774Z,0.17
2022-09-15T04:35:15.483Z,0.20
2022-09-15T04:37:44.151Z,0.20
2022-09-15T04:40:13.299Z,0.20
2022-09-15T04:42:42.759Z,0.20
2022-09-15T04:45:11.678Z,0.25
2022-09-15T04:47:40.657Z,0.30
2022-09-15T04:50:09.854Z,0.20
2022-09-15T04:52:38.551Z,0.20
2022-09-15T04:55:07.458Z,0.30
2022-09-15T04:57:36.155Z,0.30
2022-09-15T05:00:08.093Z,0.30
2022-09-15T05:02:36.938Z,0.30
2022-09-15T05:05:07.200Z,0.40
2022-09-15T05:07:35.931Z,0.40
2022-09-15T05:10:04.993Z,0.30
2022-09-15T05:12:34.210Z,0.30
2022-09-15T05:15:03.090Z,0.30
2022-09-15T05:17:33.205Z,0.30
2022-09-15T05:20:02.277Z,0.20
2022-09-15T05:22:32.864Z,0.20
2022-09-15T05:25:01.588Z,0.30
2022-09-15T05:27:34.441Z,0.20
2022-09-15T05:30:31.931Z,0.20
2022-09-15T05:32:53.545Z,0.20
2022-09-15T05:35:24.084Z,0.20
2022-09-15T05:37:52.794Z,0.20
2022-09-15T05:40:22.923Z,0.20
2022-09-15T05:42:51.711Z,0.20
2022-09-15T05:45:20.385Z,0.20
2022-09-15T05:47:49.081Z,0.20
2022-09-15T05:50:17.964Z,0.30
2022-09-15T05:52:52.418Z,0.20
2022-09-15T05:55:21.323Z,0.30
2022-09-15T05:57:50.075Z,0.20
2022-09-15T06:00:19.855Z,0.20
2022-09-15T06:02:48.864Z,0.20
2022-09-15T06:05:17.726Z,0.20
2022-09-15T06:07:46.419Z,0.20
2022-09-15T06:10:16.262Z,0.28
2022-09-15T06:12:45.890Z,0.20
2022-09-15T06:15:14.802Z,0.10
2022-09-15T06:17:43.592Z,0.20
2022-09-15T06:20:12.722Z,0.10
2022-09-15T06:22:41.751Z,0.10
2022-09-15T06:25:11.137Z,0.10
2022-09-15T06:27:40.721Z,0.20
2022-09-15T06:30:10.624Z,0.20
2022-09-15T06:32:40.107Z,0.20
2022-09-15T06:35:09.274Z,0.25
2022-09-15T06:37:37.982Z,0.20
2022-09-15T06:40:08.207Z,0.10
2022-09-15T06:42:37.853Z,0.20
2022-09-15T06:45:06.927Z,0.25
2022-09-15T06:47:36.105Z,0.20
2022-09-15T06:50:05.699Z,0.20
2022-09-15T06:52:35.147Z,0.10
2022-09-15T06:55:04.518Z,0.20
2022-09-15T06:57:33.292Z,0.10
2022-09-15T07:00:03.846Z,0.10
2022-09-15T07:02:33.888Z,0.10
2022-09-15T07:05:03.387Z,0.20
2022-09-15T07:07:32.270Z,0.20
2022-09-15T07:10:03.019Z,0.20
2022-09-15T07:12:33.008Z,0.20
2022-09-15T07:15:01.872Z,0.20
2022-09-15T07:17:32.127Z,0.20
2022-09-15T07:20:02.778Z,0.30
2022-09-15T07:22:32.241Z,0.20
2022-09-15T07:25:00.901Z,0.30
2022-09-15T07:27:32.284Z,0.30
2022-09-15T07:30:01.217Z,0.30
2022-09-15T07:32:30.546Z,0.30
2022-09-15T07:34:59.537Z,0.30
2022-09-15T07:37:28.356Z,0.30
2022-09-15T07:39:57.110Z,0.30
2022-09-15T07:42:26.521Z,0.30
2022-09-15T07:44:55.376Z,0.30
2022-09-15T07:47:24.135Z,0.30
2022-09-15T07:49:53.471Z,0.30
2022-09-15T07:52:22.447Z,0.30
2022-09-15T07:54:51.759Z,0.30
2022-09-15T07:57:20.489Z,0.30
2022-09-15T07:59:50.435Z,0.30
2022-09-15T08:02:22.094Z,0.30
2022-09-15T08:04:53.683Z,0.30
2022-09-15T08:07:22.876Z,0.30
2022-09-15T08:09:51.641Z,0.30
2022-09-15T08:12:20.401Z,0.20
2022-09-15T08:14:49.888Z,0.10
2022-09-15T08:17:18.696Z,0.20
2022-09-15T08:19:47.806Z,0.20
2022-09-15T08:22:16.532Z,0.20
2022-09-15T08:24:45.406Z,0.20
2022-09-15T08:27:15.857Z,0.20
2022-09-15T08:29:44.778Z,0.20
2022-09-15T08:32:13.706Z,0.20
2022-09-15T08:34:42.494Z,0.30
2022-09-15T08:37:11.228Z,0.20
2022-09-15T08:39:40.026Z,0.20
2022-09-15T08:42:16.442Z,0.20
2022-09-15T08:44:59.633Z,0.20
2022-09-15T08:47:42.573Z,0.20
2022-09-15T08:50:23.707Z,0.20
2022-09-15T08:53:25.946Z,0.30
2022-09-15T08:56:02.316Z,0.30
2022-09-15T08:58:34.874Z,0.30
2022-09-15T09:01:07.505Z,0.30
2022-09-15T09:04:01.214Z,0.30
2022-09-15T09:06:55.360Z,0.30
2022-09-15T09:09:43.131Z,0.20
2022-09-15T09:12:31.217Z,0.22
2022-09-15T09:15:26.524Z,0.30
2022-09-15T09:18:21.515Z,0.30
2022-09-15T09:21:14.034Z,0.30
2022-09-15T09:24:07.814Z,0.20
2022-09-15T09:26:37.674Z,0.30
2022-09-15T09:29:15.508Z,0.30
2022-09-15T09:31:46.698Z,0.30
2022-09-15T09:34:33.412Z,0.30
2022-09-15T09:39:37.997Z,0.30
2022-09-15T09:42:12.145Z,0.30
2022-09-15T09:44:42.197Z,0.30
2022-09-15T09:47:12.922Z,0.30
2022-09-15T09:49:48.524Z,0.20
2022-09-15T09:52:39.604Z,0.20
2022-09-15T09:55:23.764Z,0.30
2022-09-15T09:57:52.731Z,0.30
2022-09-15T10:00:40.175Z,0.30
2022-09-15T10:03:29.419Z,0.28
2022-09-15T10:06:12.125Z,0.20
2022-09-15T10:08:59.114Z,0.20
2022-09-15T10:11:47.934Z,0.30
2022-09-15T10:14:27.620Z,0.30
2022-09-15T10:16:59.269Z,0.30
2022-09-15T10:19:31.128Z,0.30
2022-09-15T10:22:03.301Z,0.30
2022-09-15T10:24:40.746Z,0.20
2022-09-15T10:27:32.213Z,0.30
2022-09-15T10:30:17.193Z,0.30
2022-09-15T10:32:46.008Z,0.20
2022-09-15T10:35:19.230Z,0.30
2022-09-15T10:38:03.878Z,0.30
2022-09-15T10:41:13.652Z,0.30
2022-09-15T10:44:05.529Z,0.30
2022-09-15T10:46:49.059Z,0.30
2022-09-15T10:49:39.124Z,0.30
2022-09-15T10:52:16.679Z,0.20
2022-09-15T10:54:48.910Z,0.30
2022-09-15T10:57:39.367Z,0.30
2022-09-15T11:00:13.509Z,0.30
2022-09-15T11:03:00.629Z,0.30
2022-09-15T11:05:29.354Z,0.20
2022-09-15T11:08:33.887Z,0.30
2022-09-15T11:11:18.626Z,0.30
2022-09-15T11:13:47.435Z,0.30
2022-09-15T11:16:44.572Z,0.30
2022-09-15T11:19:50.386Z,0.28
2022-09-15T11:22:40.313Z,0.30
2022-09-15T11:25:29.745Z,0.30
2022-09-15T11:28:25.886Z,0.30
2022-09-15T11:31:20.248Z,0.30
2022-09-15T11:34:12.102Z,0.30
2022-09-15T11:36:47.454Z,0.30
2022-09-15T11:39:31.131Z,0.30
2022-09-15T11:42:15.270Z,0.30
2022-09-15T11:44:47.430Z,0.30
2022-09-15T11:47:43.562Z,0.30
2022-09-15T11:50:12.312Z,0.30
2022-09-15T11:52:51.787Z,0.30
2022-09-15T11:55:53.962Z,0.30
2022-09-15T11:58:44.085Z,0.30
2022-09-15T12:01:19.709Z,0.30
2022-09-15T12:03:52.701Z,0.30
2022-09-15T12:06:45.986Z,0.30
2022-09-15T12:09:19.100Z,0.30
2022-09-15T12:11:53.578Z,0.30
2022-09-15T12:14:47.917Z,0.30
2022-09-15T12:17:31.241Z,0.30
2022-09-15T12:20:12.335Z,0.30
2022-09-15T12:22:47.096Z,0.30
2022-09-15T12:26:03.281Z,0.30
2022-09-15T12:31:32.875Z,0.30
2022-09-15T12:34:26.450Z,0.30
2022-09-15T12:37:16.205Z,0.30
2022-09-15T12:39:47.162Z,0.30
2022-09-15T12:42:30.285Z,0.30
2022-09-15T12:45:06.679Z,0.30
2022-09-15T12:47:49.705Z,0.30
2022-09-15T12:50:21.914Z,0.30
2022-09-15T12:53:01.397Z,0.20
2022-09-15T12:55:38.491Z,0.30
2022-09-15T13:01:16.938Z,0.30
2022-09-15T13:03:41.309Z,0.30
2022-09-15T13:06:27.417Z,0.30
2022-09-15T13:09:02.021Z,0.30
2022-09-15T13:11:39.977Z,0.30
2022-09-15T13:14:23.789Z,0.30
2022-09-15T13:16:59.091Z,0.30
2022-09-15T13:19:52.866Z,0.30
2022-09-15T13:22:35.396Z,0.30
2022-09-15T13:25:05.221Z,0.30
2022-09-15T13:27:57.543Z,0.30
2022-09-15T13:30:48.448Z,0.30
2022-09-15T13:40:04.779Z,0.30
2022-09-15T13:42:52.161Z,0.30
2022-09-15T13:45:45.205Z,0.30
2022-09-15T13:48:24.038Z,0.30
2022-09-15T13:51:06.767Z,0.30
2022-09-15T13:53:44.650Z,0.30
2022-09-15T13:56:28.689Z,0.30
2022-09-15T13:59:08.133Z,0.30
2022-09-15T14:01:39.761Z,0.30
2022-09-15T14:04:20.059Z,0.30
2022-09-15T14:06:55.917Z,0.30
2022-09-15T14:09:37.938Z,0.30
2022-09-15T14:12:13.871Z,0.30
2022-09-15T14:14:52.085Z,0.30
2022-09-15T14:17:30.310Z,0.30
2022-09-15T14:20:01.406Z,0.30
2022-09-15T14:22:36.328Z,0.30
2022-09-15T14:25:15.213Z,0.30
2022-09-15T14:30:25.230Z,0.30
2022-09-15T14:33:04.672Z,0.30
2022-09-15T14:35:38.299Z,0.30
2022-09-15T14:38:07.950Z,0.30
2022-09-15T14:40:40.443Z,0.30
2022-09-15T14:43:36.219Z,0.30
2022-09-15T14:46:17.544Z,0.30
2022-09-15T14:48:46.320Z,0.30
2022-09-15T14:51:29.262Z,0.30
2022-09-15T14:54:00.968Z,0.30
2022-09-15T14:56:35.830Z,0.30
2022-09-15T14:59:20.265Z,0.30
2022-09-15T15:01:57.379Z,0.30
2022-09-15T15:04:55.682Z,0.30
2022-09-15T15:07:28.475Z,0.30
2022-09-15T15:10:05.425Z,0.30
2022-09-15T15:12:40.548Z,0.30
2022-09-15T15:15:15.613Z,0.30
2022-09-15T15:17:49.975Z,0.30
2022-09-15T15:20:25.173Z,0.30
2022-09-15T15:23:17.154Z,0.30
2022-09-15T15:25:47.604Z,0.30
2022-09-15T15:28:37.460Z,0.30
2022-09-15T15:31:09.175Z,0.30
2022-09-15T15:33:38.360Z,0.30
2022-09-15T15:36:15.391Z,0.30
2022-09-15T15:38:52.755Z,0.30
2022-09-15T15:41:32.217Z,0.30
2022-09-15T15:44:03.948Z,0.30
2022-09-15T15:46:53.838Z,0.30
2022-09-15T15:49:28.099Z,0.30
2022-09-15T15:51:58.829Z,0.30
2022-09-15T15:54:27.756Z,0.30
2022-09-15T15:57:04.764Z,0.30
2022-09-15T16:02:07.045Z,0.30
2022-09-15T16:04:35.942Z,0.30
2022-09-15T16:07:04.773Z,0.30
2022-09-15T16:09:34.490Z,0.30
2022-09-15T16:12:03.298Z,0.30
2022-09-15T16:14:32.463Z,0.30
2022-09-15T16:17:01.816Z,0.30
2022-09-15T16:19:30.564Z,0.30
2022-09-15T16:21:59.402Z,0.30
2022-09-15T16:24:29.117Z,0.30
2022-09-15T16:26:57.893Z,0.30
2022-09-15T16:29:31.869Z,0.30
2022-09-15T16:32:00.922Z,0.30
2022-09-15T16:34:29.596Z,0.30
2022-09-15T16:36:58.499Z,0.30
2022-09-15T16:39:27.172Z,0.30
2022-09-15T16:41:55.907Z,0.30
2022-09-15T16:44:24.891Z,0.30
2022-09-15T16:46:53.715Z,0.30
2022-09-15T16:49:22.604Z,0.30
2022-09-15T16:51:51.351Z,0.30
2022-09-15T16:54:23.493Z,0.30
2022-09-15T16:56:52.651Z,0.30
2022-09-15T16:59:21.420Z,0.30
2022-09-15T17:01:50.954Z,0.30
2022-09-15T17:04:19.889Z,0.30
2022-09-15T17:06:48.783Z,0.30
2022-09-15T17:09:17.489Z,0.30
2022-09-15T17:11:46.219Z,0.30
2022-09-15T17:14:17.530Z,0.30
2022-09-15T17:16:53.213Z,0.30
2022-09-15T17:19:22.824Z,0.30
2022-09-15T17:21:53.221Z,0.30
2022-09-15T17:24:21.987Z,0.30
2022-09-15T17:26:51.080Z,0.30
2022-09-15T17:29:19.741Z,0.30
2022-09-15T17:31:48.502Z,0.30
2022-09-15T17:34:17.246Z,0.30
2022-09-15T17:36:46.075Z,0.30
2022-09-15T17:39:15.385Z,0.30
2022-09-15T17:41:45.438Z,0.30
2022-09-15T17:44:14.958Z,0.30
2022-09-15T17:46:43.845Z,0.30
2022-09-15T17:49:12.866Z,0.30
2022-09-15T17:51:41.967Z,0.30
2022-09-15T17:54:13.945Z,0.30
2022-09-15T17:56:42.724Z,0.30
2022-09-15T17:59:15.621Z,0.30
2022-09-15T18:01:45.744Z,0.30
2022-09-15T18:04:15.146Z,0.30
2022-09-15T18:06:45.684Z,0.30
2022-09-15T18:09:15.912Z,0.30
2022-09-15T18:11:44.958Z,0.30
2022-09-15T18:14:13.718Z,0.30
2022-09-15T18:16:43.152Z,0.30
2022-09-15T18:19:12.116Z,0.30
2022-09-15T18:21:40.834Z,0.30
2022-09-15T18:24:12.216Z,0.30
2022-09-15T18:26:40.921Z,0.30
2022-09-15T18:29:10.674Z,0.30
2022-09-15T18:31:39.449Z,0.30
2022-09-15T18:34:08.438Z,0.30
2022-09-15T18:36:37.445Z,0.30
2022-09-15T18:39:06.214Z,0.30
2022-09-15T18:41:37.650Z,0.30
2022-09-15T18:44:06.524Z,0.30
2022-09-15T18:46:35.360Z,0.30
2022-09-15T18:49:04.089Z,0.32
2022-09-15T18:51:50.458Z,0.30
2022-09-15T18:54:19.923Z,0.30
2022-09-15T18:56:48.636Z,0.38
2022-09-15T18:59:17.892Z,0.30
2022-09-15T19:01:47.613Z,0.30
2022-09-15T19:04:16.480Z,0.30
2022-09-15T19:06:45.267Z,0.30
2022-09-15T19:09:14.049Z,0.30
2022-09-15T19:11:43.618Z,0.30
2022-09-15T19:14:12.308Z,0.30
2022-09-15T19:16:57.197Z,0.30
2022-09-15T19:19:27.038Z,0.30
2022-09-15T19:21:55.866Z,0.30
2022-09-15T19:24:25.914Z,0.30
2022-09-15T19:26:54.592Z,0.30
2022-09-15T19:29:23.672Z,0.30
2022-09-15T19:31:52.553Z,0.30
2022-09-15T19:34:21.926Z,0.30
2022-09-15T19:36:50.896Z,0.30
2022-09-15T19:39:19.735Z,0.35
2022-09-15T19:41:48.699Z,0.30
2022-09-15T19:44:17.774Z,0.30
2022-09-15T19:46:46.982Z,0.30
2022-09-15T19:49:15.776Z,0.30
2022-09-15T19:51:45.027Z,0.30
2022-09-15T19:54:13.955Z,0.30
2022-09-15T19:56:42.919Z,0.30
2022-09-15T19:59:11.670Z,0.30
2022-09-15T20:01:41.499Z,0.30
2022-09-15T20:04:11.264Z,0.30
2022-09-15T20:06:40.916Z,0.30
2022-09-15T20:09:10.774Z,0.30
2022-09-15T20:11:39.496Z,0.30
2022-09-15T20:14:08.584Z,0.30
2022-09-15T20:16:38.321Z,0.30
2022-09-15T20:19:08.192Z,0.30
2022-09-15T20:21:50.440Z,0.30
2022-09-15T20:24:21.434Z,0.30
2022-09-15T20:26:50.276Z,0.30
2022-09-15T20:29:19.967Z,0.30
2022-09-15T20:31:49.082Z,0.30
2022-09-15T20:34:19.296Z,0.30
2022-09-15T20:36:48.094Z,0.30
2022-09-15T20:39:19.389Z,0.30
2022-09-15T20:41:48.461Z,0.30
2022-09-15T20:44:17.333Z,0.30
2022-09-15T20:46:46.122Z,0.30
2022-09-15T20:49:14.915Z,0.30
2022-09-15T20:51:43.892Z,0.30
2022-09-15T20:54:12.720Z,0.30
2022-09-15T20:56:42.402Z,0.30
2022-09-15T20:59:14.702Z,0.30
2022-09-15T21:01:44.231Z,0.30
2022-09-15T21:04:13.422Z,0.30
2022-09-15T21:06:42.335Z,0.30
2022-09-15T21:09:11.261Z,0.30
2022-09-15T21:11:40.380Z,0.30
2022-09-15T21:14:11.345Z,0.30
2022-09-15T21:16:40.680Z,0.30
2022-09-15T21:19:12.912Z,0.30
2022-09-15T21:21:41.880Z,0.30
2022-09-15T21:24:11.096Z,0.30
2022-09-15T21:27:01.846Z,0.30
2022-09-15T21:29:31.863Z,0.30
2022-09-15T21:32:00.637Z,0.30
2022-09-15T21:34:29.562Z,0.30
2022-09-15T21:36:58.517Z,0.30
2022-09-15T21:39:28.167Z,0.30
2022-09-15T21:41:56.921Z,0.30
2022-09-15T21:44:27.623Z,0.30
2022-09-15T21:46:56.332Z,0.30
2022-09-15T21:49:26.432Z,0.30
2022-09-15T21:51:55.224Z,0.30
2022-09-15T21:54:24.963Z,0.30
2022-09-15T21:56:53.660Z,0.30
2022-09-15T21:59:22.638Z,0.30
2022-09-15T22:01:52.755Z,0.30
2022-09-15T22:04:21.797Z,0.32
2022-09-15T22:06:51.441Z,0.30
2022-09-15T22:09:21.931Z,0.30
2022-09-15T22:11:51.790Z,0.32
2022-09-15T22:14:22.002Z,0.40
2022-09-15T22:16:50.871Z,0.30
2022-09-15T22:19:20.183Z,0.30
2022-09-15T22:21:49.411Z,0.40
2022-09-15T22:24:19.372Z,0.30
2022-09-15T22:26:48.226Z,0.30
2022-09-15T22:29:16.930Z,0.30
2022-09-15T22:31:45.762Z,0.30
2022-09-15T22:34:15.365Z,0.30
2022-09-15T22:36:46.036Z,0.30
2022-09-15T22:39:15.602Z,0.30
2022-09-15T22:41:44.376Z,0.30
2022-09-15T22:44:19.703Z,0.30
2022-09-15T22:46:50.287Z,0.30
2022-09-15T22:49:19.328Z,0.30
2022-09-15T22:51:48.267Z,0.30
2022-09-15T22:54:17.241Z,0.30
2022-09-15T22:56:48.970Z,0.30
2022-09-15T22:59:17.734Z,0.30
2022-09-15T23:01:47.920Z,0.35
2022-09-15T23:04:17.002Z,0.30
2022-09-15T23:06:46.312Z,0.30
2022-09-15T23:09:15.092Z,0.30
2022-09-15T23:11:43.939Z,0.30
2022-09-15T23:14:15.839Z,0.30
2022-09-15T23:16:44.865Z,0.30
2022-09-15T23:19:14.576Z,0.30
2022-09-15T23:21:44.049Z,0.30
2022-09-15T23:24:13.171Z,0.30
2022-09-15T23:26:42.864Z,0.30
2022-09-15T23:29:11.874Z,0.30
2022-09-15T23:31:40.956Z,0.30
2022-09-15T23:34:14.780Z,0.30
2022-09-15T23:36:44.144Z,0.30
2022-09-15T23:39:13.307Z,0.35
2022-09-15T23:41:42.501Z,0.30
2022-09-15T23:44:11.827Z,0.30
2022-09-15T23:46:40.670Z,0.30
2022-09-15T23:49:10.002Z,0.30
2022-09-15T23:51:38.773Z,0.30
2022-09-15T23:54:07.624Z,0.30
2022-09-15T23:56:36.800Z,0.30
2022-09-15T23:59:05.741Z,0.30
